sensor_id;sensor_type;location;lat;lon;timestamp;pressure;altitude;pressure_sealevel;temperature;humidity
16690;BME280;8458;52.220;9.884;2022-09-09T00:00:58;100118.53;;;16.46;91.79
16690;BME280;8458;52.220;9.884;2022-09-09T00:03:31;100118.53;;;16.46;91.44
16690;BME280;8458;52.220;9.884;2022-09-09T00:06:08;100120.19;;;16.47;91.18
16690;BME280;8458;52.220;9.884;2022-09-09T00:08:45;100116.22;;;16.48;90.72
16690;BME280;8458;52.220;9.884;2022-09-09T00:11:17;100117.25;;;16.52;89.94
16690;BME280;8458;52.220;9.884;2022-09-09T00:13:48;100116.22;;;16.48;89.79
16690;BME280;8458;52.220;9.884;2022-09-09T00:16:19;100120.69;;;16.49;89.23
16690;BME280;8458;52.220;9.884;2022-09-09T00:18:54;100116.53;;;16.46;89.18
16690;BME280;8458;52.220;9.884;2022-09-09T00:21:30;100118.53;;;16.46;89.91
16690;BME280;8458;52.220;9.884;2022-09-09T00:23:58;100115.72;;;16.46;89.89
16690;BME280;8458;52.220;9.884;2022-09-09T00:26:31;100113.56;;;16.43;90.33
16690;BME280;8458;52.220;9.884;2022-09-09T00:29:04;100111.16;;;16.50;89.21
16690;BME280;8458;52.220;9.884;2022-09-09T00:31:31;100106.84;;;16.44;90.00
16690;BME280;8458;52.220;9.884;2022-09-09T00:34:11;100115.22;;;16.44;90.21
16690;BME280;8458;52.220;9.884;2022-09-09T00:36:41;100114.69;;;16.42;90.17
16690;BME280;8458;52.220;9.884;2022-09-09T00:39:13;100119.31;;;16.38;89.61
16690;BME280;8458;52.220;9.884;2022-09-09T00:41:51;100113.69;;;16.38;89.40
16690;BME280;8458;52.220;9.884;2022-09-09T00:44:30;100117.63;;;16.37;90.57
16690;BME280;8458;52.220;9.884;2022-09-09T00:47:18;100116.50;;;16.38;91.13
16690;BME280;8458;52.220;9.884;2022-09-09T00:49:54;100110.69;;;16.34;91.76
16690;BME280;8458;52.220;9.884;2022-09-09T00:52:33;100109.88;;;16.34;91.91
16690;BME280;8458;52.220;9.884;2022-09-09T00:55:10;100114.66;;;16.33;91.00
16690;BME280;8458;52.220;9.884;2022-09-09T00:57:40;100111.16;;;16.27;90.89
16690;BME280;8458;52.220;9.884;2022-09-09T01:00:22;100122.47;;;16.22;91.13
16690;BME280;8458;52.220;9.884;2022-09-09T01:02:56;100116.66;;;16.19;91.18
16690;BME280;8458;52.220;9.884;2022-09-09T01:05:33;100113.53;;;16.20;91.41
16690;BME280;8458;52.220;9.884;2022-09-09T01:08:05;100116.47;;;16.15;91.62
16690;BME280;8458;52.220;9.884;2022-09-09T01:10:43;100114.19;;;16.17;91.77
16690;BME280;8458;52.220;9.884;2022-09-09T01:13:20;100108.22;;;16.10;92.21
16690;BME280;8458;52.220;9.884;2022-09-09T01:15:48;100118.88;;;16.08;92.10
16690;BME280;8458;52.220;9.884;2022-09-09T01:18:17;100119.81;;;16.03;92.06
16690;BME280;8458;52.220;9.884;2022-09-09T01:20:51;100124.28;;;16.04;92.27
16690;BME280;8458;52.220;9.884;2022-09-09T01:23:35;100122.94;;;16.02;92.40
16690;BME280;8458;52.220;9.884;2022-09-09T01:26:13;100120.25;;;15.97;93.06
16690;BME280;8458;52.220;9.884;2022-09-09T01:28:44;100114.66;;;15.97;93.38
16690;BME280;8458;52.220;9.884;2022-09-09T01:31:15;100106.78;;;15.99;93.45
16690;BME280;8458;52.220;9.884;2022-09-09T01:33:43;100094.78;;;15.98;93.79
16690;BME280;8458;52.220;9.884;2022-09-09T01:36:12;100103.34;;;16.02;93.86
16690;BME280;8458;52.220;9.884;2022-09-09T01:38:41;100097.06;;;15.96;93.97
16690;BME280;8458;52.220;9.884;2022-09-09T01:41:08;100101.00;;;15.95;94.30
16690;BME280;8458;52.220;9.884;2022-09-09T01:43:36;100097.91;;;15.97;94.18
16690;BME280;8458;52.220;9.884;2022-09-09T01:46:03;100103.47;;;15.97;93.80
16690;BME280;8458;52.220;9.884;2022-09-09T01:48:30;100119.22;;;15.92;94.12
16690;BME280;8458;52.220;9.884;2022-09-09T01:50:57;100109.72;;;15.93;94.34
16690;BME280;8458;52.220;9.884;2022-09-09T01:53:23;100112.63;;;15.88;94.06
16690;BME280;8458;52.220;9.884;2022-09-09T01:55:58;100115.75;;;15.87;94.04
16690;BME280;8458;52.220;9.884;2022-09-09T01:58:32;100117.38;;;15.88;94.08
16690;BME280;8458;52.220;9.884;2022-09-09T02:01:08;100123.19;;;15.91;94.28
16690;BME280;8458;52.220;9.884;2022-09-09T02:03:40;100115.09;;;15.90;94.68
16690;BME280;8458;52.220;9.884;2022-09-09T02:06:17;100112.63;;;15.88;94.25
16690;BME280;8458;52.220;9.884;2022-09-09T02:08:48;100123.81;;;15.88;94.55
16690;BME280;8458;52.220;9.884;2022-09-09T02:11:16;100122.66;;;15.89;94.63
16690;BME280;8458;52.220;9.884;2022-09-09T02:13:45;100112.00;;;15.91;94.43
16690;BME280;8458;52.220;9.884;2022-09-09T02:16:17;100114.25;;;15.89;94.59
16690;BME280;8458;52.220;9.884;2022-09-09T02:18:48;100112.00;;;15.91;94.55
16690;BME280;8458;52.220;9.884;2022-09-09T02:21:17;100112.81;;;15.92;94.34
16690;BME280;8458;52.220;9.884;2022-09-09T02:23:46;100116.75;;;15.91;94.06
16690;BME280;8458;52.220;9.884;2022-09-09T02:26:15;100113.63;;;15.92;94.04
16690;BME280;8458;52.220;9.884;2022-09-09T02:28:46;100115.94;;;15.90;94.42
16690;BME280;8458;52.220;9.884;2022-09-09T02:31:17;100102.25;;;15.89;94.52
16690;BME280;8458;52.220;9.884;2022-09-09T02:33:47;100098.66;;;15.88;94.07
16690;BME280;8458;52.220;9.884;2022-09-09T02:36:18;100090.38;;;15.83;94.85
16690;BME280;8458;52.220;9.884;2022-09-09T02:38:47;100106.00;;;15.84;94.92
16690;BME280;8458;52.220;9.884;2022-09-09T02:41:16;100097.94;;;15.83;94.77
16690;BME280;8458;52.220;9.884;2022-09-09T02:43:43;100100.22;;;15.81;94.25
16690;BME280;8458;52.220;9.884;2022-09-09T02:46:24;100099.16;;;15.76;94.83
16690;BME280;8458;52.220;9.884;2022-09-09T02:48:59;100098.97;;;15.73;95.89
16690;BME280;8458;52.220;9.884;2022-09-09T02:51:33;100103.75;;;15.72;96.11
16690;BME280;8458;52.220;9.884;2022-09-09T02:54:10;100103.09;;;15.75;96.47
16690;BME280;8458;52.220;9.884;2022-09-09T02:56:41;100100.03;;;15.77;96.78
16690;BME280;8458;52.220;9.884;2022-09-09T02:59:08;100103.34;;;15.79;96.88
16690;BME280;8458;52.220;9.884;2022-09-09T03:01:36;100099.41;;;15.80;96.77
16690;BME280;8458;52.220;9.884;2022-09-09T03:04:05;100101.03;;;15.81;96.74
16690;BME280;8458;52.220;9.884;2022-09-09T03:06:31;100100.41;;;15.84;96.69
16690;BME280;8458;52.220;9.884;2022-09-09T03:08:58;100097.63;;;15.84;96.67
16690;BME280;8458;52.220;9.884;2022-09-09T03:11:26;100110.97;;;15.87;97.13
16690;BME280;8458;52.220;9.884;2022-09-09T03:13:53;100112.00;;;15.91;96.42
16690;BME280;8458;52.220;9.884;2022-09-09T03:16:21;100103.97;;;15.99;95.59
16690;BME280;8458;52.220;9.884;2022-09-09T03:18:49;100105.97;;;15.98;95.46
16690;BME280;8458;52.220;9.884;2022-09-09T03:21:15;100112.38;;;15.99;96.04
16690;BME280;8458;52.220;9.884;2022-09-09T03:23:41;100112.28;;;16.04;95.41
16690;BME280;8458;52.220;9.884;2022-09-09T03:26:10;100106.69;;;16.04;95.73
16690;BME280;8458;52.220;9.884;2022-09-09T03:28:36;100105.53;;;16.05;95.33
16690;BME280;8458;52.220;9.884;2022-09-09T03:31:05;100109.66;;;16.07;95.67
16690;BME280;8458;52.220;9.884;2022-09-09T03:33:31;100097.66;;;16.07;95.82
16690;BME280;8458;52.220;9.884;2022-09-09T03:36:01;100100.16;;;16.08;95.44
16690;BME280;8458;52.220;9.884;2022-09-09T03:38:27;100102.00;;;16.13;95.71
16690;BME280;8458;52.220;9.884;2022-09-09T03:40:56;100096.41;;;16.13;96.33
16690;BME280;8458;52.220;9.884;2022-09-09T03:43:23;100097.53;;;16.12;96.16
16690;BME280;8458;52.220;9.884;2022-09-09T03:45:49;100095.63;;;16.21;95.16
16690;BME280;8458;52.220;9.884;2022-09-09T03:48:16;100096.25;;;16.18;95.44
16690;BME280;8458;52.220;9.884;2022-09-09T03:50:46;100100.09;;;16.22;95.09
16690;BME280;8458;52.220;9.884;2022-09-09T03:53:16;100102.34;;;16.20;95.45
16690;BME280;8458;52.220;9.884;2022-09-09T03:55:45;100093.66;;;16.22;95.23
16690;BME280;8458;52.220;9.884;2022-09-09T03:58:12;100095.44;;;16.18;95.26
16690;BME280;8458;52.220;9.884;2022-09-09T04:00:38;100088.69;;;16.19;95.31
16690;BME280;8458;52.220;9.884;2022-09-09T04:03:07;100083.72;;;16.16;95.71
16690;BME280;8458;52.220;9.884;2022-09-09T04:05:34;100093.34;;;16.23;95.27
16690;BME280;8458;52.220;9.884;2022-09-09T04:08:00;100095.75;;;16.16;95.48
16690;BME280;8458;52.220;9.884;2022-09-09T04:10:28;100097.41;;;16.17;96.31
16690;BME280;8458;52.220;9.884;2022-09-09T04:12:55;100097.94;;;16.19;96.31
16690;BME280;8458;52.220;9.884;2022-09-09T04:15:21;100105.47;;;16.19;95.76
16690;BME280;8458;52.220;9.884;2022-09-09T04:17:47;100097.59;;;16.21;95.57
16690;BME280;8458;52.220;9.884;2022-09-09T04:20:15;100101.34;;;16.16;95.75
16690;BME280;8458;52.220;9.884;2022-09-09T04:22:41;100104.03;;;16.21;95.37
16690;BME280;8458;52.220;9.884;2022-09-09T04:25:08;100109.63;;;16.21;95.27
16690;BME280;8458;52.220;9.884;2022-09-09T04:27:36;100103.38;;;16.24;95.09
16690;BME280;8458;52.220;9.884;2022-09-09T04:30:02;100106.63;;;16.18;95.08
16690;BME280;8458;52.220;9.884;2022-09-09T04:32:29;100113.75;;;16.24;95.14
16690;BME280;8458;52.220;9.884;2022-09-09T04:34:58;100112.09;;;16.23;95.99
16690;BME280;8458;52.220;9.884;2022-09-09T04:37:24;100115.06;;;16.26;95.09
16690;BME280;8458;52.220;9.884;2022-09-09T04:39:51;100116.25;;;16.25;95.69
16690;BME280;8458;52.220;9.884;2022-09-09T04:42:17;100113.44;;;16.25;96.18
16690;BME280;8458;52.220;9.884;2022-09-09T04:44:46;100113.94;;;16.27;96.44
16690;BME280;8458;52.220;9.884;2022-09-09T04:47:12;100112.41;;;16.21;96.93
16690;BME280;8458;52.220;9.884;2022-09-09T04:49:40;100117.06;;;16.26;97.24
16690;BME280;8458;52.220;9.884;2022-09-09T04:52:06;100115.41;;;16.25;97.53
16690;BME280;8458;52.220;9.884;2022-09-09T04:54:33;100119.66;;;16.22;97.60
16690;BME280;8458;52.220;9.884;2022-09-09T04:57:00;100111.66;;;16.29;97.71
16690;BME280;8458;52.220;9.884;2022-09-09T04:59:27;100115.78;;;16.32;97.72
16690;BME280;8458;52.220;9.884;2022-09-09T05:01:55;100112.66;;;16.34;97.66
16690;BME280;8458;52.220;9.884;2022-09-09T05:04:21;100122.19;;;16.33;97.67
16690;BME280;8458;52.220;9.884;2022-09-09T05:06:48;100127.69;;;16.38;97.26
16690;BME280;8458;52.220;9.884;2022-09-09T05:09:14;100124.03;;;16.37;97.38
16690;BME280;8458;52.220;9.884;2022-09-09T05:11:41;100124.25;;;16.41;96.55
16690;BME280;8458;52.220;9.884;2022-09-09T05:14:09;100129.63;;;16.37;97.20
16690;BME280;8458;52.220;9.884;2022-09-09T05:16:36;100131.13;;;16.35;97.96
16690;BME280;8458;52.220;9.884;2022-09-09T05:19:04;100123.22;;;16.37;98.93
16690;BME280;8458;52.220;9.884;2022-09-09T05:21:33;100119.78;;;16.40;99.09
16690;BME280;8458;52.220;9.884;2022-09-09T05:23:59;100126.41;;;16.44;98.32
16690;BME280;8458;52.220;9.884;2022-09-09T05:26:26;100125.25;;;16.45;98.59
16690;BME280;8458;52.220;9.884;2022-09-09T05:28:54;100118.22;;;16.47;99.31
16690;BME280;8458;52.220;9.884;2022-09-09T05:31:21;100125.66;;;16.52;99.42
16690;BME280;8458;52.220;9.884;2022-09-09T05:33:48;100127.81;;;16.55;100.00
16690;BME280;8458;52.220;9.884;2022-09-09T05:36:18;100122.72;;;16.57;100.00
16690;BME280;8458;52.220;9.884;2022-09-09T05:38:45;100130.78;;;16.59;100.00
16690;BME280;8458;52.220;9.884;2022-09-09T05:41:13;100123.72;;;16.61;100.00
16690;BME280;8458;52.220;9.884;2022-09-09T05:43:40;100135.56;;;16.58;100.00
16690;BME280;8458;52.220;9.884;2022-09-09T05:46:11;100138.22;;;16.63;100.00
16690;BME280;8458;52.220;9.884;2022-09-09T05:48:39;100134.47;;;16.68;100.00
16690;BME280;8458;52.220;9.884;2022-09-09T05:51:08;100131.88;;;16.72;100.00
16690;BME280;8458;52.220;9.884;2022-09-09T05:53:37;100142.44;;;16.75;100.00
16690;BME280;8458;52.220;9.884;2022-09-09T05:56:05;100141.81;;;16.78;100.00
16690;BME280;8458;52.220;9.884;2022-09-09T05:58:32;100140.63;;;16.79;100.00
16690;BME280;8458;52.220;9.884;2022-09-09T06:01:04;100147.25;;;16.83;100.00
16690;BME280;8458;52.220;9.884;2022-09-09T06:03:30;100144.94;;;16.85;100.00
16690;BME280;8458;52.220;9.884;2022-09-09T06:05:58;100151.59;;;16.89;100.00
16690;BME280;8458;52.220;9.884;2022-09-09T06:08:25;100144.88;;;16.90;100.00
16690;BME280;8458;52.220;9.884;2022-09-09T06:10:53;100149.31;;;16.91;100.00
16690;BME280;8458;52.220;9.884;2022-09-09T06:13:21;100147.03;;;16.93;99.37
16690;BME280;8458;52.220;9.884;2022-09-09T06:15:51;100152.09;;;16.91;99.71
16690;BME280;8458;52.220;9.884;2022-09-09T06:18:18;100157.38;;;16.93;100.00
16690;BME280;8458;52.220;9.884;2022-09-09T06:20:53;100158.41;;;16.97;99.09
16690;BME280;8458;52.220;9.884;2022-09-09T06:23:20;100160.13;;;16.84;100.00
16690;BME280;8458;52.220;9.884;2022-09-09T06:25:46;100154.25;;;16.94;99.95
16690;BME280;8458;52.220;9.884;2022-09-09T06:28:15;100153.28;;;16.99;100.00
16690;BME280;8458;52.220;9.884;2022-09-09T06:30:42;100141.78;;;17.00;100.00
16690;BME280;8458;52.220;9.884;2022-09-09T06:33:09;100144.63;;;17.09;100.00
16690;BME280;8458;52.220;9.884;2022-09-09T06:35:36;100143.66;;;17.14;100.00
16690;BME280;8458;52.220;9.884;2022-09-09T06:38:02;100141.84;;;17.18;100.00
16690;BME280;8458;52.220;9.884;2022-09-09T06:40:29;100135.81;;;17.25;100.00
16690;BME280;8458;52.220;9.884;2022-09-09T06:42:59;100146.06;;;17.38;100.00
16690;BME280;8458;52.220;9.884;2022-09-09T06:45:27;100137.53;;;17.43;100.00
16690;BME280;8458;52.220;9.884;2022-09-09T06:47:55;100135.56;;;17.52;99.28
16690;BME280;8458;52.220;9.884;2022-09-09T06:50:21;100138.22;;;17.58;98.48
16690;BME280;8458;52.220;9.884;2022-09-09T06:52:48;100139.03;;;17.58;96.51
16690;BME280;8458;52.220;9.884;2022-09-09T06:55:14;100131.63;;;17.62;95.58
16690;BME280;8458;52.220;9.884;2022-09-09T06:57:43;100137.25;;;17.62;95.94
16690;BME280;8458;52.220;9.884;2022-09-09T07:00:10;100132.31;;;17.68;95.16
16690;BME280;8458;52.220;9.884;2022-09-09T07:02:40;100136.78;;;17.78;94.27
16690;BME280;8458;52.220;9.884;2022-09-09T07:05:08;100138.25;;;17.75;92.37
16690;BME280;8458;52.220;9.884;2022-09-09T07:07:34;100149.00;;;17.82;94.00
16690;BME280;8458;52.220;9.884;2022-09-09T07:10:02;100127.44;;;17.91;92.41
16690;BME280;8458;52.220;9.884;2022-09-09T07:12:29;100138.66;;;17.91;92.10
16690;BME280;8458;52.220;9.884;2022-09-09T07:14:55;100144.09;;;17.96;91.99
16690;BME280;8458;52.220;9.884;2022-09-09T07:17:22;100140.00;;;18.02;91.88
16690;BME280;8458;52.220;9.884;2022-09-09T07:19:49;100142.63;;;18.07;91.64
16690;BME280;8458;52.220;9.884;2022-09-09T07:22:16;100147.44;;;18.16;92.12
16690;BME280;8458;52.220;9.884;2022-09-09T07:24:42;100150.88;;;18.21;90.37
16690;BME280;8458;52.220;9.884;2022-09-09T07:27:10;100149.41;;;18.24;90.10
16690;BME280;8458;52.220;9.884;2022-09-09T07:29:36;100155.38;;;18.31;89.89
16690;BME280;8458;52.220;9.884;2022-09-09T07:32:03;100152.53;;;18.40;88.35
16690;BME280;8458;52.220;9.884;2022-09-09T07:34:30;100157.50;;;18.52;89.83
16690;BME280;8458;52.220;9.884;2022-09-09T07:36:57;100157.84;;;18.50;90.31
16690;BME280;8458;52.220;9.884;2022-09-09T07:39:24;100159.47;;;18.60;89.62
16690;BME280;8458;52.220;9.884;2022-09-09T07:41:50;100155.66;;;18.73;88.45
16690;BME280;8458;52.220;9.884;2022-09-09T07:44:19;100159.78;;;18.85;88.04
16690;BME280;8458;52.220;9.884;2022-09-09T07:46:46;100152.84;;;18.91;86.49
16690;BME280;8458;52.220;9.884;2022-09-09T07:49:13;100146.69;;;18.97;87.11
16690;BME280;8458;52.220;9.884;2022-09-09T07:51:42;100149.03;;;19.04;85.62
16690;BME280;8458;52.220;9.884;2022-09-09T07:54:12;100163.69;;;19.19;86.32
16690;BME280;8458;52.220;9.884;2022-09-09T07:56:39;100163.47;;;19.24;81.81
16690;BME280;8458;52.220;9.884;2022-09-09T07:59:07;100166.13;;;19.29;82.27
16690;BME280;8458;52.220;9.884;2022-09-09T08:01:37;100169.41;;;19.31;81.61
16690;BME280;8458;52.220;9.884;2022-09-09T08:04:06;100160.88;;;19.19;80.03
16690;BME280;8458;52.220;9.884;2022-09-09T08:06:37;100169.28;;;19.19;81.21
16690;BME280;8458;52.220;9.884;2022-09-09T08:09:05;100161.06;;;19.13;81.92
16690;BME280;8458;52.220;9.884;2022-09-09T08:11:33;100168.16;;;19.20;82.48
16690;BME280;8458;52.220;9.884;2022-09-09T08:14:01;100173.09;;;19.23;81.52
16690;BME280;8458;52.220;9.884;2022-09-09T08:16:30;100175.72;;;19.28;82.31
16690;BME280;8458;52.220;9.884;2022-09-09T08:18:57;100175.50;;;19.33;82.42
16690;BME280;8458;52.220;9.884;2022-09-09T08:21:25;100170.91;;;19.28;80.04
16690;BME280;8458;52.220;9.884;2022-09-09T08:23:54;100168.75;;;19.34;80.54
16690;BME280;8458;52.220;9.884;2022-09-09T08:26:22;100173.69;;;19.37;80.27
16690;BME280;8458;52.220;9.884;2022-09-09T08:28:51;100177.81;;;19.40;82.14
16690;BME280;8458;52.220;9.884;2022-09-09T08:31:20;100171.00;;;19.49;81.28
16690;BME280;8458;52.220;9.884;2022-09-09T08:33:47;100172.66;;;19.50;81.20
16690;BME280;8458;52.220;9.884;2022-09-09T08:36:18;100180.22;;;19.59;81.53
16690;BME280;8458;52.220;9.884;2022-09-09T08:38:47;100173.91;;;19.62;81.37
16690;BME280;8458;52.220;9.884;2022-09-09T08:41:31;100172.56;;;19.68;80.73
16690;BME280;8458;52.220;9.884;2022-09-09T08:44:06;100178.06;;;19.64;79.23
16690;BME280;8458;52.220;9.884;2022-09-09T08:46:42;100184.78;;;19.72;79.40
16690;BME280;8458;52.220;9.884;2022-09-09T08:49:19;100186.41;;;19.73;78.29
16690;BME280;8458;52.220;9.884;2022-09-09T08:51:51;100183.09;;;19.80;78.08
16690;BME280;8458;52.220;9.884;2022-09-09T08:54:21;100187.72;;;19.84;78.88
16690;BME280;8458;52.220;9.884;2022-09-09T08:56:48;100181.91;;;19.90;81.11
16690;BME280;8458;52.220;9.884;2022-09-09T08:59:18;100188.97;;;19.96;78.89
16690;BME280;8458;52.220;9.884;2022-09-09T09:01:55;100188.31;;;19.99;77.32
16690;BME280;8458;52.220;9.884;2022-09-09T09:04:38;100189.94;;;20.00;78.57
16690;BME280;8458;52.220;9.884;2022-09-09T09:07:18;100192.81;;;19.91;78.54
16690;BME280;8458;52.220;9.884;2022-09-09T09:09:54;100191.72;;;20.04;77.49
16690;BME280;8458;52.220;9.884;2022-09-09T09:12:27;100192.56;;;20.05;78.64
16690;BME280;8458;52.220;9.884;2022-09-09T09:14:56;100190.00;;;20.12;78.72
16690;BME280;8458;52.220;9.884;2022-09-09T09:17:26;100196.16;;;20.14;78.43
16690;BME280;8458;52.220;9.884;2022-09-09T09:19:54;100198.28;;;20.17;76.37
16690;BME280;8458;52.220;9.884;2022-09-09T09:22:22;100194.50;;;20.13;77.66
16690;BME280;8458;52.220;9.884;2022-09-09T09:24:52;100200.25;;;20.17;77.10
16690;BME280;8458;52.220;9.884;2022-09-09T09:27:27;100196.63;;;20.16;77.56
16690;BME280;8458;52.220;9.884;2022-09-09T09:30:00;100199.97;;;20.31;78.14
16690;BME280;8458;52.220;9.884;2022-09-09T09:32:30;100184.13;;;20.47;78.80
16690;BME280;8458;52.220;9.884;2022-09-09T09:34:58;100185.78;;;20.48;74.90
16690;BME280;8458;52.220;9.884;2022-09-09T09:37:30;100179.25;;;20.56;75.69
16690;BME280;8458;52.220;9.884;2022-09-09T09:40:07;100182.53;;;20.58;75.98
16690;BME280;8458;52.220;9.884;2022-09-09T09:42:35;100184.50;;;20.67;75.69
16690;BME280;8458;52.220;9.884;2022-09-09T09:45:15;100188.75;;;20.73;75.75
16690;BME280;8458;52.220;9.884;2022-09-09T09:47:43;100179.13;;;20.74;76.12
16690;BME280;8458;52.220;9.884;2022-09-09T09:50:17;100182.53;;;20.58;75.34
16690;BME280;8458;52.220;9.884;2022-09-09T09:52:53;100176.16;;;20.49;75.02
16690;BME280;8458;52.220;9.884;2022-09-09T09:55:20;100176.09;;;20.37;75.20
16690;BME280;8458;52.220;9.884;2022-09-09T09:57:48;100181.47;;;20.30;75.46
16690;BME280;8458;52.220;9.884;2022-09-09T10:00:17;100170.00;;;20.35;75.47
16690;BME280;8458;52.220;9.884;2022-09-09T10:02:45;100170.28;;;20.42;75.70
16690;BME280;8458;52.220;9.884;2022-09-09T10:05:15;100171.44;;;20.41;76.49
16690;BME280;8458;52.220;9.884;2022-09-09T10:07:42;100174.31;;;20.53;74.90
16690;BME280;8458;52.220;9.884;2022-09-09T10:10:14;100169.66;;;20.57;73.41
16690;BME280;8458;52.220;9.884;2022-09-09T10:12:47;100169.66;;;20.57;73.40
16690;BME280;8458;52.220;9.884;2022-09-09T10:15:29;100163.06;;;20.53;72.62
16690;BME280;8458;52.220;9.884;2022-09-09T10:18:04;100155.75;;;20.52;71.99
16690;BME280;8458;52.220;9.884;2022-09-09T10:20:38;100162.22;;;20.53;73.10
16690;BME280;8458;52.220;9.884;2022-09-09T10:23:21;100159.31;;;20.62;72.38
16690;BME280;8458;52.220;9.884;2022-09-09T10:26:06;100157.16;;;20.67;72.49
16690;BME280;8458;52.220;9.884;2022-09-09T10:28:57;100160.72;;;20.76;71.33
16690;BME280;8458;52.220;9.884;2022-09-09T10:31:34;100155.81;;;20.86;72.30
16690;BME280;8458;52.220;9.884;2022-09-09T10:34:12;100156.44;;;20.91;71.96
16690;BME280;8458;52.220;9.884;2022-09-09T10:36:46;100151.53;;;21.01;72.49
16690;BME280;8458;52.220;9.884;2022-09-09T10:39:25;100161.53;;;21.23;70.87
16690;BME280;8458;52.220;9.884;2022-09-09T10:42:02;100155.69;;;21.40;67.66
16690;BME280;8458;52.220;9.884;2022-09-09T10:44:40;100154.66;;;21.57;66.05
16690;BME280;8458;52.220;9.884;2022-09-09T10:50:18;100153.97;;;21.60;71.54
16690;BME280;8458;52.220;9.884;2022-09-09T10:52:56;100157.19;;;21.25;69.84
16690;BME280;8458;52.220;9.884;2022-09-09T10:55:27;100154.81;;;21.03;70.79
16690;BME280;8458;52.220;9.884;2022-09-09T10:58:00;100150.34;;;21.02;70.92
16690;BME280;8458;52.220;9.884;2022-09-09T11:00:37;100148.66;;;20.88;69.48
16690;BME280;8458;52.220;9.884;2022-09-09T11:03:06;100146.75;;;20.80;69.92
16690;BME280;8458;52.220;9.884;2022-09-09T11:05:41;100146.28;;;20.78;71.17
16690;BME280;8458;52.220;9.884;2022-09-09T11:08:13;100151.22;;;20.81;69.85
16690;BME280;8458;52.220;9.884;2022-09-09T11:10:43;100150.19;;;20.86;69.83
16690;BME280;8458;52.220;9.884;2022-09-09T11:13:15;100160.47;;;20.82;69.45
16690;BME280;8458;52.220;9.884;2022-09-09T11:15:46;100163.44;;;20.85;68.98
16690;BME280;8458;52.220;9.884;2022-09-09T11:18:19;100163.97;;;21.00;69.30
16690;BME280;8458;52.220;9.884;2022-09-09T11:20:48;100159.28;;;21.04;68.43
16690;BME280;8458;52.220;9.884;2022-09-09T11:23:20;100171.25;;;21.13;68.89
16690;BME280;8458;52.220;9.884;2022-09-09T11:25:53;100161.75;;;21.18;67.66
16690;BME280;8458;52.220;9.884;2022-09-09T11:28:35;100177.59;;;21.22;67.39
16690;BME280;8458;52.220;9.884;2022-09-09T11:31:21;100173.63;;;21.23;66.70
16690;BME280;8458;52.220;9.884;2022-09-09T11:34:21;100180.78;;;21.21;64.63
16690;BME280;8458;52.220;9.884;2022-09-09T11:37:10;100178.50;;;21.02;65.65
16690;BME280;8458;52.220;9.884;2022-09-09T11:40:08;100182.78;;;20.74;68.52
16690;BME280;8458;52.220;9.884;2022-09-09T11:42:35;100202.75;;;20.39;72.98
16690;BME280;8458;52.220;9.884;2022-09-09T11:45:09;100199.66;;;19.73;76.11
16690;BME280;8458;52.220;9.884;2022-09-09T11:47:38;100198.97;;;19.46;78.13
16690;BME280;8458;52.220;9.884;2022-09-09T11:50:28;100194.59;;;19.19;77.28
16690;BME280;8458;52.220;9.884;2022-09-09T11:53:05;100187.69;;;19.07;77.53
16690;BME280;8458;52.220;9.884;2022-09-09T11:55:33;100196.59;;;19.09;79.29
16690;BME280;8458;52.220;9.884;2022-09-09T11:58:03;100188.16;;;19.18;79.21
16690;BME280;8458;52.220;9.884;2022-09-09T12:00:35;100188.03;;;18.97;77.91
16690;BME280;8458;52.220;9.884;2022-09-09T12:03:02;100183.75;;;18.91;77.86
16690;BME280;8458;52.220;9.884;2022-09-09T12:05:40;100189.03;;;18.75;78.10
16690;BME280;8458;52.220;9.884;2022-09-09T12:08:09;100181.94;;;18.95;77.71
16690;BME280;8458;52.220;9.884;2022-09-09T12:10:39;100185.41;;;18.92;77.66
16690;BME280;8458;52.220;9.884;2022-09-09T12:13:16;100184.72;;;18.95;77.39
16690;BME280;8458;52.220;9.884;2022-09-09T12:15:47;100168.00;;;19.07;76.86
16690;BME280;8458;52.220;9.884;2022-09-09T12:18:16;100178.03;;;19.26;77.58
16690;BME280;8458;52.220;9.884;2022-09-09T12:20:55;100174.50;;;19.38;76.56
16690;BME280;8458;52.220;9.884;2022-09-09T12:23:34;100180.91;;;19.47;76.04
16690;BME280;8458;52.220;9.884;2022-09-09T12:26:16;100179.53;;;19.62;75.18
16690;BME280;8458;52.220;9.884;2022-09-09T12:28:56;100170.22;;;19.70;75.39
16690;BME280;8458;52.220;9.884;2022-09-09T12:31:28;100168.06;;;19.76;75.62
16690;BME280;8458;52.220;9.884;2022-09-09T12:34:09;100168.34;;;19.83;76.69
16690;BME280;8458;52.220;9.884;2022-09-09T12:36:39;100164.34;;;19.93;76.25
16690;BME280;8458;52.220;9.884;2022-09-09T12:39:16;100167.16;;;19.93;76.79
16690;BME280;8458;52.220;9.884;2022-09-09T12:41:51;100162.31;;;20.02;77.02
16690;BME280;8458;52.220;9.884;2022-09-09T12:44:22;100172.38;;;20.03;76.97
16690;BME280;8458;52.220;9.884;2022-09-09T12:46:49;100168.41;;;20.04;77.50
16690;BME280;8458;52.220;9.884;2022-09-09T12:49:29;100177.94;;;20.12;77.73
16690;BME280;8458;52.220;9.884;2022-09-09T12:52:01;100180.56;;;20.17;78.10
16690;BME280;8458;52.220;9.884;2022-09-09T12:54:30;100181.88;;;20.19;77.99
16690;BME280;8458;52.220;9.884;2022-09-09T12:56:57;100169.91;;;20.22;77.07
16690;BME280;8458;52.220;9.884;2022-09-09T12:59:25;100177.69;;;20.26;77.05
16690;BME280;8458;52.220;9.884;2022-09-09T13:01:56;100182.28;;;20.30;78.26
16690;BME280;8458;52.220;9.884;2022-09-09T13:04:22;100176.78;;;20.34;79.49
16690;BME280;8458;52.220;9.884;2022-09-09T13:06:49;100171.31;;;20.37;79.24
16690;BME280;8458;52.220;9.884;2022-09-09T13:09:19;100177.75;;;20.38;79.46
16690;BME280;8458;52.220;9.884;2022-09-09T13:11:48;100175.41;;;20.40;80.07
16690;BME280;8458;52.220;9.884;2022-09-09T13:14:17;100177.88;;;20.41;80.45
16690;BME280;8458;52.220;9.884;2022-09-09T13:16:55;100181.31;;;20.47;80.33
16690;BME280;8458;52.220;9.884;2022-09-09T13:19:22;100173.84;;;20.51;79.66
16690;BME280;8458;52.220;9.884;2022-09-09T13:21:53;100174.19;;;20.50;78.66